createdAt,value
2023-01-12T00:02:15.438Z,28.95
2023-01-12T00:04:45.139Z,29.15
2023-01-12T00:07:14.268Z,29.77
2023-01-12T00:09:42.855Z,32.90
2023-01-12T00:12:11.748Z,27.10
2023-01-12T00:14:40.604Z,25.15
2023-01-12T00:17:09.323Z,28.38
2023-01-12T00:19:38.948Z,25.85
2023-01-12T00:22:13.420Z,25.73
2023-01-12T00:24:48.169Z,26.75
2023-01-12T00:27:19.352Z,24.88
2023-01-12T00:29:50.047Z,26.40
2023-01-12T00:32:19.595Z,25.23
2023-01-12T00:34:48.039Z,29.02
2023-01-12T00:37:17.073Z,27.13
2023-01-12T00:40:01.002Z,25.30
2023-01-12T00:42:49.151Z,24.80
2023-01-12T00:45:23.706Z,25.65
2023-01-12T00:47:53.890Z,26.57
2023-01-12T00:50:22.319Z,25.63
2023-01-12T00:52:51.397Z,26.88
2023-01-12T00:55:19.882Z,27.60
2023-01-12T00:57:48.901Z,24.55
2023-01-12T01:00:17.966Z,25.88
2023-01-12T01:02:48.614Z,28.30
2023-01-12T01:05:19.163Z,28.15
2023-01-12T01:07:48.124Z,29.25
2023-01-12T01:10:17.045Z,26.13
2023-01-12T01:12:45.730Z,26.48
2023-01-12T01:15:14.592Z,28.33
2023-01-12T01:17:43.351Z,24.88
2023-01-12T01:20:20.392Z,25.30
2023-01-12T01:22:49.160Z,23.55
2023-01-12T01:25:17.495Z,23.30
2023-01-12T01:27:47.235Z,25.90
2023-01-12T01:30:15.606Z,24.77
2023-01-12T01:32:44.215Z,27.48
2023-01-12T01:35:12.623Z,27.23
2023-01-12T01:37:41.401Z,28.33
2023-01-12T01:40:10.138Z,28.13
2023-01-12T01:42:39.552Z,27.10
2023-01-12T01:45:11.813Z,30.33
2023-01-12T01:47:42.930Z,28.48
2023-01-12T01:50:15.384Z,29.85
2023-01-12T01:52:45.743Z,29.05
2023-01-12T01:55:18.298Z,32.58
2023-01-12T01:57:49.416Z,30.30
2023-01-12T02:00:18.168Z,32.00
2023-01-12T02:02:48.938Z,31.88
2023-01-12T02:05:20.276Z,32.63
2023-01-12T02:07:50.370Z,32.83
2023-01-12T02:10:19.968Z,29.90
2023-01-12T02:13:09.983Z,29.98
2023-01-12T02:16:07.928Z,33.58
2023-01-12T02:18:40.951Z,32.45
2023-01-12T02:21:28.225Z,32.67
2023-01-12T02:23:56.925Z,32.30
2023-01-12T02:26:36.847Z,31.88
2023-01-12T02:29:23.096Z,30.85
2023-01-12T02:32:03.782Z,32.40
2023-01-12T02:34:44.766Z,33.30
2023-01-12T02:37:17.071Z,33.80
2023-01-12T02:39:59.951Z,36.90
2023-01-12T02:42:44.837Z,38.78
2023-01-12T02:45:22.815Z,37.30
2023-01-12T02:47:54.249Z,39.60
2023-01-12T02:50:46.393Z,39.63
2023-01-12T02:53:23.680Z,40.13
2023-01-12T02:55:53.313Z,38.08
2023-01-12T02:58:22.807Z,36.83
2023-01-12T03:00:55.380Z,34.72
2023-01-12T03:03:24.290Z,39.55
2023-01-12T03:05:56.278Z,37.35
2023-01-12T03:08:28.955Z,42.40
2023-01-12T03:11:12.286Z,44.20
2023-01-12T03:13:44.877Z,39.95
2023-01-12T03:16:17.002Z,42.58
2023-01-12T03:18:54.536Z,47.25
2023-01-12T03:21:35.948Z,37.55
2023-01-12T03:24:09.480Z,48.10
2023-01-12T03:26:40.036Z,56.75
2023-01-12T03:29:16.019Z,47.65
2023-01-12T03:31:44.861Z,42.05
2023-01-12T03:34:13.774Z,42.63
2023-01-12T03:37:00.199Z,46.45
2023-01-12T03:39:28.627Z,45.40
2023-01-12T03:42:00.414Z,42.97
2023-01-12T03:44:39.746Z,47.17
2023-01-12T03:47:13.921Z,47.10
2023-01-12T03:49:45.631Z,39.33
2023-01-12T03:52:15.006Z,40.53
2023-01-12T03:54:43.867Z,35.17
2023-01-12T03:57:13.045Z,34.17
2023-01-12T03:59:41.863Z,39.63
2023-01-12T04:02:10.757Z,34.33
2023-01-12T04:04:39.140Z,31.20
2023-01-12T04:07:08.065Z,29.13
2023-01-12T04:09:37.589Z,30.92
2023-01-12T04:12:13.393Z,36.00
2023-01-12T04:14:43.184Z,33.65
2023-01-12T04:17:15.824Z,32.88
2023-01-12T04:19:44.331Z,34.33
2023-01-12T04:22:34.135Z,29.27
2023-01-12T04:25:02.450Z,32.55
2023-01-12T04:27:31.304Z,29.92
2023-01-12T04:30:00.054Z,34.30
2023-01-12T04:32:28.808Z,36.85
2023-01-12T04:34:57.169Z,42.97
2023-01-12T04:37:25.919Z,36.42
2023-01-12T04:39:54.374Z,34.75
2023-01-12T04:42:41.728Z,38.78
2023-01-12T04:45:10.309Z,26.75
2023-01-12T04:47:39.277Z,28.65
2023-01-12T04:50:09.267Z,29.33
2023-01-12T04:52:38.368Z,30.02
2023-01-12T04:55:07.212Z,31.17
2023-01-12T04:57:36.050Z,29.33
2023-01-12T05:00:05.442Z,30.20
2023-01-12T05:02:34.107Z,29.38
2023-01-12T05:05:02.580Z,29.13
2023-01-12T05:07:31.586Z,27.58
2023-01-12T05:10:18.474Z,33.65
2023-01-12T05:12:47.103Z,30.52
2023-01-12T05:15:15.368Z,31.98
2023-01-12T05:17:44.331Z,31.00
2023-01-12T05:20:12.765Z,34.42
2023-01-12T05:22:41.554Z,31.00
2023-01-12T05:25:09.974Z,35.35
2023-01-12T05:27:38.662Z,32.40
2023-01-12T05:30:10.382Z,32.80
2023-01-12T05:32:39.957Z,37.08
2023-01-12T05:35:09.034Z,43.08
2023-01-12T05:37:38.085Z,31.90
2023-01-12T05:40:06.706Z,30.02
2023-01-12T05:42:53.849Z,29.95
2023-01-12T05:45:45.070Z,30.00
2023-01-12T05:48:13.904Z,27.33
2023-01-12T05:50:45.587Z,30.00
2023-01-12T05:53:14.407Z,27.70
2023-01-12T05:55:43.070Z,23.52
2023-01-12T05:58:12.116Z,23.50
2023-01-12T06:00:40.329Z,24.73
2023-01-12T06:03:09.175Z,28.00
2023-01-12T06:05:37.710Z,25.92
2023-01-12T06:08:06.523Z,26.23
2023-01-12T06:10:37.174Z,25.52
2023-01-12T06:13:24.405Z,26.77
2023-01-12T06:15:52.927Z,27.08
2023-01-12T06:18:22.698Z,23.95
2023-01-12T06:20:50.898Z,32.50
2023-01-12T06:23:19.408Z,29.25
2023-01-12T06:25:47.723Z,28.58
2023-01-12T06:28:17.596Z,23.65
2023-01-12T06:30:46.045Z,22.30
2023-01-12T06:33:14.664Z,22.17
2023-01-12T06:35:48.999Z,21.92
2023-01-12T06:38:19.098Z,27.40
2023-01-12T06:40:47.837Z,26.55
2023-01-12T06:43:16.794Z,25.05
2023-01-12T06:45:45.558Z,23.55
2023-01-12T06:48:14.667Z,27.02
2023-01-12T06:50:43.336Z,25.90
2023-01-12T06:53:12.149Z,26.80
2023-01-12T06:55:40.864Z,25.17
2023-01-12T06:58:09.438Z,27.20
2023-01-12T07:00:37.714Z,20.10
2023-01-12T07:03:06.553Z,27.40
2023-01-12T07:05:34.965Z,23.05
2023-01-12T07:08:03.800Z,25.70
2023-01-12T07:10:32.952Z,23.95
2023-01-12T07:13:01.877Z,25.23
2023-01-12T07:15:33.606Z,22.65
2023-01-12T07:18:02.558Z,27.77
2023-01-12T07:20:32.389Z,22.48
2023-01-12T07:23:01.188Z,19.58
2023-01-12T07:25:29.575Z,27.52
2023-01-12T07:27:58.784Z,19.80
2023-01-12T07:30:27.990Z,20.45
2023-01-12T07:32:56.642Z,24.08
2023-01-12T07:35:25.425Z,20.63
2023-01-12T07:37:54.157Z,24.30
2023-01-12T07:40:22.548Z,20.52
2023-01-12T07:42:58.763Z,21.70
2023-01-12T07:47:55.753Z,29.50
2023-01-12T07:50:24.810Z,34.15
2023-01-12T07:52:54.316Z,38.97
2023-01-12T07:55:23.047Z,20.70
2023-01-12T07:57:59.078Z,23.02
2023-01-12T08:00:27.905Z,24.05
2023-01-12T08:03:03.808Z,20.40
2023-01-12T08:05:32.439Z,25.65
2023-01-12T08:08:03.555Z,45.05
2023-01-12T08:10:32.313Z,21.67
2023-01-12T08:13:00.860Z,24.98
2023-01-12T08:15:29.788Z,29.63
2023-01-12T08:18:03.826Z,29.20
2023-01-12T08:20:34.484Z,24.40
2023-01-12T08:23:11.872Z,24.60
2023-01-12T08:25:45.037Z,20.25
2023-01-12T08:28:16.735Z,21.08
2023-01-12T08:30:46.584Z,26.63
2023-01-12T08:33:15.840Z,23.30
2023-01-12T08:35:46.307Z,19.20
2023-01-12T08:38:15.289Z,18.52
2023-01-12T08:41:02.188Z,16.60
2023-01-12T08:43:49.764Z,19.05
2023-01-12T08:46:18.276Z,20.52
2023-01-12T08:48:46.915Z,14.20
2023-01-12T08:51:15.146Z,14.98
2023-01-12T08:53:44.470Z,12.20
2023-01-12T08:56:12.839Z,16.02
2023-01-12T08:58:43.056Z,15.52
2023-01-12T09:01:12.734Z,13.15
2023-01-12T09:03:41.861Z,14.13
2023-01-12T09:06:14.266Z,12.30
2023-01-12T09:08:43.405Z,10.95
2023-01-12T09:11:12.419Z,11.75
2023-01-12T09:13:41.223Z,14.27
2023-01-12T09:16:13.408Z,12.95
2023-01-12T09:18:42.792Z,13.40
2023-01-12T09:21:12.237Z,15.77
2023-01-12T09:23:41.309Z,12.57
2023-01-12T09:26:10.886Z,9.60
2023-01-12T09:28:39.728Z,11.77
2023-01-12T09:31:09.462Z,11.10
2023-01-12T09:33:39.035Z,10.63
2023-01-12T09:36:11.806Z,14.07
2023-01-12T09:38:41.391Z,18.80
2023-01-12T09:41:11.297Z,16.92
2023-01-12T09:43:59.897Z,16.48
2023-01-12T09:46:56.992Z,11.85
2023-01-12T09:49:29.515Z,14.38
2023-01-12T09:52:24.304Z,14.43
2023-01-12T09:54:53.433Z,14.10
2023-01-12T09:57:28.918Z,11.38
2023-01-12T09:59:57.993Z,18.70
2023-01-12T10:02:27.210Z,29.08
2023-01-12T10:04:57.522Z,20.33
2023-01-12T10:07:26.018Z,40.83
2023-01-12T10:09:54.636Z,29.45
2023-01-12T10:12:36.280Z,46.95
2023-01-12T10:15:29.731Z,54.88
2023-01-12T10:18:06.272Z,22.20
2023-01-12T10:20:39.115Z,53.10
2023-01-12T10:23:15.651Z,34.47
2023-01-12T10:25:47.669Z,25.55
2023-01-12T10:28:16.087Z,11.30
2023-01-12T10:30:44.686Z,17.75
2023-01-12T10:33:13.059Z,12.93
2023-01-12T10:36:02.272Z,20.42
2023-01-12T10:38:32.556Z,20.83
2023-01-12T10:41:20.126Z,19.08
2023-01-12T10:44:06.875Z,20.85
2023-01-12T10:46:36.279Z,20.73
2023-01-12T10:49:34.051Z,15.15
2023-01-12T10:52:06.952Z,14.23
2023-01-12T10:54:36.210Z,11.10
2023-01-12T10:57:04.887Z,15.00
2023-01-12T10:59:40.039Z,12.45
2023-01-12T11:02:09.195Z,13.90
2023-01-12T11:04:39.113Z,17.27
2023-01-12T11:07:11.065Z,18.60
2023-01-12T11:09:40.290Z,11.63
2023-01-12T11:12:29.700Z,13.20
2023-01-12T11:15:00.446Z,36.50
2023-01-12T11:17:36.558Z,11.23
2023-01-12T11:20:07.911Z,11.10
2023-01-12T11:22:38.091Z,11.40
2023-01-12T11:25:22.808Z,13.07
2023-01-12T11:27:51.789Z,11.13
2023-01-12T11:30:40.671Z,11.55
2023-01-12T11:33:24.162Z,9.07
2023-01-12T11:35:55.349Z,10.70
2023-01-12T11:38:28.234Z,15.20
2023-01-12T11:40:57.146Z,16.48
2023-01-12T11:43:50.138Z,12.18
2023-01-12T11:46:22.537Z,16.48
2023-01-12T11:48:57.042Z,12.05
2023-01-12T11:51:25.561Z,14.73
2023-01-12T11:53:54.295Z,14.07
2023-01-12T11:56:22.578Z,20.23
2023-01-12T11:59:07.275Z,19.75
2023-01-12T12:01:48.174Z,18.80
2023-01-12T12:04:32.387Z,25.23
2023-01-12T12:07:23.929Z,27.88
2023-01-12T12:10:06.305Z,19.67
2023-01-12T12:13:07.375Z,20.70
2023-01-12T12:15:36.634Z,25.17
2023-01-12T12:18:30.431Z,15.43
2023-01-12T12:21:06.163Z,16.88
2023-01-12T12:23:37.450Z,16.13
2023-01-12T12:26:09.343Z,23.02
2023-01-12T12:28:43.801Z,25.05
2023-01-12T12:31:27.976Z,24.27
2023-01-12T12:34:08.484Z,23.65
2023-01-12T12:36:51.773Z,16.40
2023-01-12T12:39:40.805Z,21.13
2023-01-12T12:42:36.126Z,17.92
2023-01-12T12:48:08.561Z,14.77
2023-01-12T12:50:52.431Z,15.10
2023-01-12T12:53:23.590Z,21.17
2023-01-12T12:55:53.090Z,18.92
2023-01-12T12:58:23.727Z,15.73
2023-01-12T13:00:53.155Z,13.95
2023-01-12T13:03:40.322Z,12.55
2023-01-12T13:06:11.454Z,17.98
2023-01-12T13:08:41.298Z,15.82
2023-01-12T13:11:10.317Z,13.57
2023-01-12T13:13:40.302Z,24.10
2023-01-12T13:16:20.738Z,18.92
2023-01-12T13:18:49.693Z,15.95
2023-01-12T13:21:27.182Z,14.85
2023-01-12T13:24:18.415Z,14.73
2023-01-12T13:26:52.419Z,36.90
2023-01-12T13:29:23.905Z,26.55
2023-01-12T13:31:53.697Z,27.00
2023-01-12T13:34:37.613Z,18.77
2023-01-12T13:37:18.666Z,40.38
2023-01-12T13:40:07.633Z,39.85
2023-01-12T13:42:55.886Z,42.97
2023-01-12T13:45:24.923Z,24.73
2023-01-12T13:47:54.434Z,39.90
2023-01-12T13:50:25.196Z,35.45
2023-01-12T13:52:59.561Z,29.77
2023-01-12T13:55:30.163Z,34.33
2023-01-12T13:58:01.507Z,39.90
2023-01-12T14:00:32.518Z,35.80
2023-01-12T14:03:04.427Z,46.47
2023-01-12T14:05:34.535Z,18.50
2023-01-12T14:08:02.914Z,12.68
2023-01-12T14:10:38.027Z,36.60
2023-01-12T14:13:16.124Z,39.72
2023-01-12T14:16:04.234Z,33.50
2023-01-12T14:18:44.180Z,21.17
2023-01-12T14:21:27.074Z,17.52
2023-01-12T14:24:09.887Z,12.10
2023-01-12T14:26:38.589Z,34.08
2023-01-12T14:29:12.979Z,30.85
2023-01-12T14:31:46.336Z,26.75
2023-01-12T14:34:24.183Z,13.32
2023-01-12T14:36:53.412Z,26.00
2023-01-12T14:39:23.395Z,30.35
2023-01-12T14:42:12.347Z,27.45
2023-01-12T14:45:07.037Z,23.80
2023-01-12T14:47:36.108Z,41.85
2023-01-12T14:50:13.999Z,86.43
2023-01-12T14:52:44.084Z,33.17
2023-01-12T14:55:39.019Z,33.03
2023-01-12T14:58:15.578Z,20.02
2023-01-12T15:00:44.491Z,19.98
2023-01-12T15:03:22.685Z,20.98
2023-01-12T15:06:36.948Z,15.77
2023-01-12T15:09:05.675Z,17.33
2023-01-12T15:11:37.015Z,17.17
2023-01-12T15:14:06.910Z,26.35
2023-01-12T15:16:54.837Z,24.50
2023-01-12T15:19:45.110Z,73.10
2023-01-12T15:22:32.010Z,55.47
2023-01-12T15:25:19.507Z,38.78
2023-01-12T15:27:47.765Z,36.80
2023-01-12T15:30:16.588Z,53.65
2023-01-12T15:32:47.994Z,62.17
2023-01-12T15:35:21.490Z,51.13
2023-01-12T15:37:50.449Z,44.00
2023-01-12T15:40:19.417Z,27.98
2023-01-12T15:42:48.096Z,41.42
2023-01-12T15:45:19.163Z,32.80
2023-01-12T15:47:51.148Z,28.38
2023-01-12T15:50:20.164Z,55.08
2023-01-12T15:52:49.587Z,22.05
2023-01-12T15:55:20.002Z,22.55
2023-01-12T15:57:48.580Z,22.27
2023-01-12T16:00:19.091Z,28.13
2023-01-12T16:02:50.525Z,22.55
2023-01-12T16:05:20.771Z,16.92
2023-01-12T16:07:49.836Z,22.55
2023-01-12T16:10:18.793Z,18.58
2023-01-12T16:12:50.922Z,24.02
2023-01-12T16:15:42.485Z,19.73
2023-01-12T16:18:11.334Z,22.92
2023-01-12T16:20:40.427Z,16.50
2023-01-12T16:23:09.060Z,40.78
2023-01-12T16:25:38.383Z,16.98
2023-01-12T16:28:07.259Z,15.95
2023-01-12T16:30:45.262Z,14.75
2023-01-12T16:33:17.374Z,25.42
2023-01-12T16:35:47.305Z,18.73
2023-01-12T16:38:17.705Z,15.32
2023-01-12T16:40:47.038Z,17.63
2023-01-12T16:43:21.196Z,17.05
2023-01-12T16:45:51.226Z,16.92
2023-01-12T16:48:20.371Z,16.15
2023-01-12T16:50:49.148Z,23.45
2023-01-12T16:53:17.483Z,18.05
2023-01-12T16:55:46.088Z,27.35
2023-01-12T16:58:14.406Z,35.03
2023-01-12T17:00:43.500Z,58.10
2023-01-12T17:03:14.188Z,15.88
2023-01-12T17:05:43.268Z,20.05
2023-01-12T17:08:11.637Z,18.67
2023-01-12T17:10:40.384Z,14.52
2023-01-12T17:13:09.002Z,18.63
2023-01-12T17:15:37.800Z,17.83
2023-01-12T17:18:06.954Z,16.98
2023-01-12T17:20:35.746Z,12.40
2023-01-12T17:23:04.210Z,13.40
2023-01-12T17:25:34.035Z,11.48
2023-01-12T17:28:02.354Z,18.67
2023-01-12T17:30:31.040Z,14.35
2023-01-12T17:32:59.526Z,15.43
2023-01-12T17:35:28.400Z,11.63
2023-01-12T17:37:56.712Z,15.55
2023-01-12T17:40:27.327Z,12.10
2023-01-12T17:43:07.857Z,19.88
2023-01-12T17:45:42.906Z,24.25
2023-01-12T17:48:18.477Z,30.90
2023-01-12T17:53:17.630Z,32.42
2023-01-12T17:55:48.669Z,101.03
2023-01-12T17:58:18.743Z,43.60
2023-01-12T18:00:47.705Z,101.70
2023-01-12T18:03:16.043Z,65.40
2023-01-12T18:05:49.994Z,59.15
2023-01-12T18:08:21.884Z,60.85
2023-01-12T18:10:53.013Z,29.85
2023-01-12T18:13:21.702Z,22.25
2023-01-12T18:15:50.454Z,13.27
2023-01-12T18:18:19.011Z,25.40
2023-01-12T18:20:50.873Z,18.27
2023-01-12T18:23:21.080Z,17.98
2023-01-12T18:25:50.116Z,28.80
2023-01-12T18:28:18.402Z,15.85
2023-01-12T18:30:47.171Z,18.73
2023-01-12T18:33:15.546Z,20.33
2023-01-12T18:35:45.764Z,16.20
2023-01-12T18:38:14.128Z,20.25
2023-01-12T18:41:02.764Z,12.50
2023-01-12T18:43:31.052Z,19.08
2023-01-12T18:46:13.788Z,21.80
2023-01-12T18:48:44.702Z,35.72
2023-01-12T18:51:32.236Z,102.55
2023-01-12T18:54:01.335Z,63.30
2023-01-12T18:56:31.114Z,67.90
2023-01-12T18:58:59.422Z,42.95
2023-01-12T19:01:28.559Z,62.05
2023-01-12T19:04:03.971Z,21.50
2023-01-12T19:06:44.173Z,21.70
2023-01-12T19:09:32.167Z,20.23
2023-01-12T19:12:02.249Z,19.50
2023-01-12T19:14:49.309Z,24.77
2023-01-12T19:17:26.963Z,11.10
2023-01-12T19:19:56.637Z,11.95
2023-01-12T19:22:44.239Z,19.20
2023-01-12T19:25:41.595Z,15.90
2023-01-12T19:28:32.996Z,18.15
2023-01-12T19:31:01.957Z,13.48
2023-01-12T19:33:30.695Z,16.95
2023-01-12T19:35:59.187Z,15.60
2023-01-12T19:38:27.854Z,13.25
2023-01-12T19:41:10.495Z,14.82
2023-01-12T19:46:40.122Z,45.22
2023-01-12T19:49:10.794Z,180.20
2023-01-12T19:51:39.654Z,134.40
2023-01-12T19:54:09.360Z,172.70
2023-01-12T19:56:39.215Z,40.85
2023-01-12T20:04:14.304Z,25.33
2023-01-12T20:06:44.133Z,17.27
2023-01-12T20:09:12.521Z,20.23
2023-01-12T20:12:31.961Z,11.60
2023-01-12T20:15:01.893Z,14.55
2023-01-12T20:18:22.905Z,26.40
2023-01-12T20:21:01.196Z,23.90
2023-01-12T20:24:21.189Z,19.63
2023-01-12T20:26:49.605Z,36.00
2023-01-12T20:29:18.408Z,18.30
2023-01-12T20:34:58.191Z,19.02
2023-01-12T20:37:27.133Z,20.33
2023-01-12T20:39:56.906Z,16.35
2023-01-12T20:42:26.023Z,15.15
2023-01-12T20:44:55.176Z,21.25
2023-01-12T20:47:23.778Z,14.82
2023-01-12T20:49:52.671Z,90.45
2023-01-12T20:52:21.868Z,203.50
2023-01-12T20:54:51.361Z,90.57
2023-01-12T20:57:20.185Z,92.32
2023-01-12T20:59:49.258Z,83.82
2023-01-12T21:02:18.887Z,47.53
2023-01-12T21:04:48.450Z,21.70
2023-01-12T21:07:17.524Z,21.40
2023-01-12T21:09:46.237Z,18.65
2023-01-12T21:12:14.891Z,19.10
2023-01-12T21:14:43.591Z,12.68
2023-01-12T21:17:11.959Z,14.38
2023-01-12T21:19:40.969Z,14.77
2023-01-12T21:22:09.302Z,16.05
2023-01-12T21:24:38.001Z,13.35
2023-01-12T21:27:06.455Z,14.43
2023-01-12T21:29:35.372Z,27.58
2023-01-12T21:32:03.746Z,15.82
2023-01-12T21:34:32.789Z,11.63
2023-01-12T21:37:01.188Z,13.50
2023-01-12T21:39:30.035Z,13.93
2023-01-12T21:42:16.957Z,13.75
2023-01-12T21:44:45.617Z,12.70
2023-01-12T21:47:14.157Z,8.80
2023-01-12T21:49:42.769Z,11.77
2023-01-12T21:52:11.147Z,10.80
2023-01-12T21:54:39.707Z,10.32
2023-01-12T21:57:07.916Z,12.70
2023-01-12T21:59:36.524Z,10.90
2023-01-12T22:02:06.081Z,11.05
2023-01-12T22:07:19.017Z,11.05
2023-01-12T22:09:50.950Z,12.50
2023-01-12T22:12:19.306Z,11.55
2023-01-12T22:14:48.220Z,12.90
2023-01-12T22:17:16.537Z,10.77
2023-01-12T22:19:45.371Z,10.15
2023-01-12T22:22:13.984Z,10.65
2023-01-12T22:24:56.557Z,8.23
2023-01-12T22:27:26.784Z,9.13
2023-01-12T22:29:56.230Z,9.57
2023-01-12T22:32:25.743Z,13.35
2023-01-12T22:34:55.930Z,8.85
2023-01-12T22:37:24.816Z,8.77
2023-01-12T22:39:53.550Z,8.75
2023-01-12T22:42:42.526Z,10.65
2023-01-12T22:45:11.013Z,9.65
2023-01-12T22:47:48.027Z,11.80
2023-01-12T22:50:17.069Z,11.45
2023-01-12T22:52:46.007Z,8.93
2023-01-12T22:55:16.922Z,10.85
2023-01-12T22:57:50.498Z,7.78
2023-01-12T23:03:15.050Z,12.32
2023-01-12T23:06:12.399Z,12.40
2023-01-12T23:08:43.748Z,39.50
2023-01-12T23:11:13.905Z,15.85
2023-01-12T23:13:43.933Z,11.07
2023-01-12T23:16:35.499Z,9.20
2023-01-12T23:19:05.745Z,8.73
2023-01-12T23:21:35.756Z,16.70
2023-01-12T23:24:06.026Z,9.43
2023-01-12T23:26:34.809Z,10.85
2023-01-12T23:29:03.642Z,10.95
2023-01-12T23:31:33.362Z,8.32
2023-01-12T23:34:02.219Z,11.80
2023-01-12T23:36:31.289Z,10.63
2023-01-12T23:39:01.618Z,10.85
2023-01-12T23:41:30.969Z,8.73
2023-01-12T23:44:00.940Z,10.05
2023-01-12T23:46:30.713Z,10.27
2023-01-12T23:48:59.711Z,8.23
2023-01-12T23:51:29.226Z,10.60
2023-01-12T23:53:59.718Z,11.38
2023-01-12T23:56:29.122Z,12.13
2023-01-12T23:58:58.249Z,9.18
